Columbus, Ohio
Traffic Map
Current Weather Conditions
Columbus, Ohio
Clear
Clear
66°
Feels Like: 66°
Wind Chill: 66° Ceiling: Unl
Heat Index: 66° Visibility: 10mi
Dew Point: 61° Wind: 5mph
Humidity: 84% Direction: 10° (N)
Pressure: 30.08in Gusts: 0mph
Raw Report DataKCMH 280851Z 01004KT 10SM CLR 19/16 A3008 RMK AO2 SLP181 T01890161 53003
Traffic Incident Summary
Active as of:
Severity:
Category:
InformationThere was an issue retrieving the traffic information for this location. Please try a different location or try again shortly.
Advertisements
Track Severe Weather on mobile